首页
METAR-TAF:

METAR-TAF

机场 :

Dekalb-Peachtree Airport

亚特兰大, 喬治亞, 美国

纬度: 33-52-42N, 经度: 084-17-53W, 海拔: 305米

当前天气观测

该预报发布于58分钟前的00:53 UTC
静风
温度 9°C
湿度 81%
气压 1024 hPa
能見度: 16.1公里
天空无云

METAR: KPDK 230053Z 00000KT 10SM CLR 09/06 A3024 RMK AO2 SLP246 T00940061

时间: 21:51 (01:51 UTC)

预报

该预报发布于2小时和31分钟前的23:20 UTC
预报有效从23日的 00点(UTC)到 23日的 24点(UTC)
风速节,风向
能見度: 10公里
多云层高于25000英尺
从 23日的 0900点(UTC)
风速节,风向
能見度: 10公里
散云层高于3500英尺
多云层高于25000英尺
从 23日的 1700点(UTC)
风速4节,风向西北
能見度: 10公里
散云层高于25000英尺

TAF: KPDK 222320Z 2300/2324 00000KT P6SM BKN250 FM230900 00000KT P6SM SCT035 BKN250 FM231700 31004KT P6SM SCT250

超过4000个机场的气象观测和天气预报(METAR&TAF报告)。

可查询的气象台以黄色和红色小点在地图上表示。

将鼠标移到小点上方,可查看气象台名称。

然后点击查看天气观测和预报。

如需切换地图:点击带黑十字的绿色按钮放大地图;点击带横线的绿色按钮缩小地图;或者点击绿色箭头查看邻近地区的地图。


METAR-TAF: